Time;durP1;ratioP1;P1;durP2;ratioP2;P2;SDS_P1;SDS_P2;PMS_P1;PMS_P2;Temp;Humidity;BMP_temperature;BMP_pressure;BME280_temperature;BME280_humidity;BME280_pressure;Samples;Min_cycle;Max_cycle;Signal;HPM_P1;HPM_P2
2023/03/18 00:01:20;;;;;;;;;29.25;27.00;;;;;-147.17;100.00;-15917.19;5010305;28;52552;-52
2023/03/18 00:03:47;;;;;;;;;24.50;23.50;;;;;-147.17;100.00;-15917.19;4991612;28;51348;-47
2023/03/18 00:06:17;;;;;;;;;27.75;27.25;;;;;-147.17;100.00;-15917.19;5011074;28;52165;-48
2023/03/18 00:08:45;;;;;;;;;30.50;28.50;;;;;-147.17;100.00;-15917.19;4995175;28;52105;-48
2023/03/18 00:11:13;;;;;;;;;30.75;29.00;;;;;-147.17;100.00;-15917.19;5014011;28;51254;-49
2023/03/18 00:13:40;;;;;;;;;36.00;29.75;;;;;-147.17;100.00;-15917.19;4997127;28;51329;-47
2023/03/18 00:16:06;;;;;;;;;32.25;29.00;;;;;-147.17;100.00;-15917.19;5010856;28;54371;-54
2023/03/18 00:18:33;;;;;;;;;35.75;32.25;;;;;-147.17;100.00;-15917.19;4999615;28;52749;-47
2023/03/18 00:20:59;;;;;;;;;29.50;27.75;;;;;-147.17;100.00;-15917.19;5012733;28;52721;-48
2023/03/18 00:23:26;;;;;;;;;32.75;31.25;;;;;-147.17;100.00;-15917.19;5014534;28;51202;-47
2023/03/18 00:25:55;;;;;;;;;29.25;29.00;;;;;-147.17;100.00;-15917.19;5015694;28;52891;-48
2023/03/18 00:28:21;;;;;;;;;35.00;31.00;;;;;-147.17;100.00;-15917.19;5012785;28;52374;-52
2023/03/18 00:30:48;;;;;;;;;33.00;31.75;;;;;-147.17;100.00;-15917.19;5016243;28;51378;-51
2023/03/18 00:33:14;;;;;;;;;28.50;25.25;;;;;-147.17;100.00;-15917.19;4995368;28;52593;-50
2023/03/18 00:35:40;;;;;;;;;30.50;27.75;;;;;-147.17;100.00;-15917.19;5012066;28;52322;-49
2023/03/18 00:38:07;;;;;;;;;28.25;27.00;;;;;-147.17;100.00;-15917.19;5014026;28;51326;-48
2023/03/18 00:40:52;;;;;;;;;24.75;24.00;;;;;-147.17;100.00;-15917.19;5013034;28;51180;-47
2023/03/18 00:43:21;;;;;;;;;28.25;26.50;;;;;-147.17;100.00;-15917.19;5023394;28;51212;-49
2023/03/18 00:45:49;;;;;;;;;29.25;28.00;;;;;-147.17;100.00;-15917.19;5028140;28;52183;-48
2023/03/18 00:48:15;;;;;;;;;26.50;25.75;;;;;-147.17;100.00;-15917.19;5027775;28;51300;-48
2023/03/18 00:50:43;;;;;;;;;29.50;28.00;;;;;-147.17;100.00;-15917.19;4994475;28;51139;-52
2023/03/18 00:53:10;;;;;;;;;27.00;25.50;;;;;-147.17;100.00;-15917.19;5018828;28;51603;-52
2023/03/18 00:55:35;;;;;;;;;23.50;23.25;;;;;-147.17;100.00;-15917.19;5012877;28;51748;-49
2023/03/18 00:58:01;;;;;;;;;25.25;24.50;;;;;-147.17;100.00;-15917.19;5018296;28;51497;-50
2023/03/18 01:00:27;;;;;;;;;21.25;20.25;;;;;-147.17;100.00;-15917.19;5014427;28;51890;-52
2023/03/18 01:02:53;;;;;;;;;18.25;18.25;;;;;-147.17;100.00;-15917.19;5013179;28;51254;-49
2023/03/18 01:05:19;;;;;;;;;23.50;23.50;;;;;-147.17;100.00;-15917.19;5012462;28;51395;-50
2023/03/18 01:07:45;;;;;;;;;18.75;18.25;;;;;-147.17;100.00;-15917.19;4995298;28;53009;-49
2023/03/18 01:10:11;;;;;;;;;19.50;18.00;;;;;-147.17;100.00;-15917.19;5012660;28;51287;-48
2023/03/18 01:12:37;;;;;;;;;16.50;15.50;;;;;-147.17;100.00;-15917.19;4994123;28;51835;-49
2023/03/18 01:15:04;;;;;;;;;17.75;16.50;;;;;-147.17;100.00;-15917.19;5010532;28;51811;-48
2023/03/18 01:17:30;;;;;;;;;13.25;11.00;;;;;-147.17;100.00;-15917.19;5010382;28;51366;-51
2023/03/18 01:19:55;;;;;;;;;20.25;19.00;;;;;-147.17;100.00;-15917.19;5010514;28;51642;-48
2023/03/18 01:22:22;;;;;;;;;17.50;16.00;;;;;-147.17;100.00;-15917.19;5012061;28;51824;-52
2023/03/18 01:24:47;;;;;;;;;17.50;17.25;;;;;-147.17;100.00;-15917.19;5012763;28;52403;-51
2023/03/18 01:27:12;;;;;;;;;16.75;15.00;;;;;-147.17;100.00;-15917.19;5011154;28;51353;-51
2023/03/18 01:29:38;;;;;;;;;15.25;15.25;;;;;-147.17;100.00;-15917.19;5010324;28;51926;-49
2023/03/18 01:32:04;;;;;;;;;19.75;17.75;;;;;-147.17;100.00;-15917.19;5007806;28;53314;-49
2023/03/18 01:34:29;;;;;;;;;17.50;16.00;;;;;-147.17;100.00;-15917.19;4977831;28;52121;-52
2023/03/18 01:36:56;;;;;;;;;13.75;12.25;;;;;-147.17;100.00;-15917.19;5009341;28;51763;-50
2023/03/18 01:39:22;;;;;;;;;14.25;14.25;;;;;-147.17;100.00;-15917.19;5013974;28;52842;-49
2023/03/18 01:41:48;;;;;;;;;16.50;16.00;;;;;-147.17;100.00;-15917.19;5004393;28;52849;-50
2023/03/18 01:44:20;;;;;;;;;20.50;15.00;;;;;-147.17;100.00;-15917.19;5010119;28;51873;-49
2023/03/18 01:46:51;;;;;;;;;18.50;17.75;;;;;-147.17;100.00;-15917.19;5012847;28;51464;-49
2023/03/18 01:49:24;;;;;;;;;17.75;16.50;;;;;-147.17;100.00;-15917.19;5011795;28;52631;-49
2023/03/18 01:52:05;;;;;;;;;16.50;16.50;;;;;-147.17;100.00;-15917.19;5005901;28;51240;-50
2023/03/18 01:54:36;;;;;;;;;19.75;17.25;;;;;-147.17;100.00;-15917.19;4991211;28;52808;-48
2023/03/18 01:57:02;;;;;;;;;14.00;14.00;;;;;-147.17;100.00;-15917.19;5009030;28;53440;-48
2023/03/18 01:59:32;;;;;;;;;14.50;13.50;;;;;-147.17;100.00;-15917.19;4995966;28;51258;-49
2023/03/18 02:02:05;;;;;;;;;18.25;15.75;;;;;-147.17;100.00;-15917.19;5011642;28;51395;-49
2023/03/18 02:04:36;;;;;;;;;14.00;13.75;;;;;-147.17;100.00;-15917.19;4990765;28;51943;-48
2023/03/18 02:07:03;;;;;;;;;14.75;13.75;;;;;-147.17;100.00;-15917.19;5009879;28;51340;-51
2023/03/18 02:09:29;;;;;;;;;14.00;13.25;;;;;-147.17;100.00;-15917.19;5014736;28;51560;-48
2023/03/18 02:11:55;;;;;;;;;14.75;14.75;;;;;-147.17;100.00;-15917.19;5013658;28;51924;-48
2023/03/18 02:14:25;;;;;;;;;14.00;13.00;;;;;-147.17;100.00;-15917.19;4993319;28;54296;-48
2023/03/18 02:17:05;;;;;;;;;12.50;10.25;;;;;-147.17;100.00;-15917.19;5015441;28;52061;-48
2023/03/18 02:19:52;;;;;;;;;13.50;13.50;;;;;-147.17;100.00;-15917.19;5019920;28;52153;-50
2023/03/18 02:22:26;;;;;;;;;14.00;12.00;;;;;-147.17;100.00;-15917.19;5014880;28;51503;-49
2023/03/18 02:25:10;;;;;;;;;11.50;10.75;;;;;-147.17;100.00;-15917.19;5014226;28;54121;-50
2023/03/18 02:27:40;;;;;;;;;11.25;11.25;;;;;-147.17;100.00;-15917.19;5015580;28;51719;-51
2023/03/18 02:30:15;;;;;;;;;10.25;9.75;;;;;-147.17;100.00;-15917.19;5013710;28;51392;-48
2023/03/18 02:32:41;;;;;;;;;10.00;8.25;;;;;-147.17;100.00;-15917.19;5015377;28;51728;-48
2023/03/18 02:35:09;;;;;;;;;10.25;9.50;;;;;-147.17;100.00;-15917.19;5012210;28;52852;-48
2023/03/18 02:37:35;;;;;;;;;11.75;11.75;;;;;-147.17;100.00;-15917.19;5010210;28;52867;-48
2023/03/18 02:40:19;;;;;;;;;11.00;11.00;;;;;-147.17;100.00;-15917.19;5016594;28;51308;-48
2023/03/18 02:42:46;;;;;;;;;12.50;11.25;;;;;-147.17;100.00;-15917.19;5012338;28;52513;-49
2023/03/18 02:45:33;;;;;;;;;14.00;12.25;;;;;-147.17;100.00;-15917.19;5011522;28;52209;-47
2023/03/18 02:48:01;;;;;;;;;12.25;11.75;;;;;-147.17;100.00;-15917.19;5012668;28;51660;-48
2023/03/18 02:50:26;;;;;;;;;10.00;10.00;;;;;-147.17;100.00;-15917.19;5013022;28;51866;-48
2023/03/18 02:52:52;;;;;;;;;11.25;11.00;;;;;-147.17;100.00;-15917.19;5012601;28;51228;-47
2023/03/18 02:55:17;;;;;;;;;10.00;10.00;;;;;-147.17;100.00;-15917.19;5015529;28;51808;-51
2023/03/18 02:57:43;;;;;;;;;11.25;10.50;;;;;-147.17;100.00;-15917.19;5013031;28;52802;-53
2023/03/18 03:00:09;;;;;;;;;10.50;8.25;;;;;-147.17;100.00;-15917.19;5013641;28;51383;-47
2023/03/18 03:02:35;;;;;;;;;13.25;12.50;;;;;-147.17;100.00;-15917.19;5005237;28;51367;-50
2023/03/18 03:05:01;;;;;;;;;8.50;8.50;;;;;-147.17;100.00;-15917.19;5013378;28;54346;-50
2023/03/18 03:07:26;;;;;;;;;13.75;11.75;;;;;-147.17;100.00;-15917.19;5012876;28;52711;-49
2023/03/18 03:09:52;;;;;;;;;12.00;8.25;;;;;-147.17;100.00;-15917.19;4991741;28;52970;-52
2023/03/18 03:12:17;;;;;;;;;12.25;12.00;;;;;-147.17;100.00;-15917.19;5010668;28;51440;-49
2023/03/18 03:14:43;;;;;;;;;11.50;10.50;;;;;-147.17;100.00;-15917.19;5012147;28;52720;-51
2023/03/18 03:17:09;;;;;;;;;9.75;8.75;;;;;-147.17;100.00;-15917.19;5014733;28;51614;-49
2023/03/18 03:19:35;;;;;;;;;12.50;11.25;;;;;-147.17;100.00;-15917.19;5010727;28;51289;-48
2023/03/18 03:22:00;;;;;;;;;10.50;8.75;;;;;-147.17;100.00;-15917.19;5010636;28;51911;-50
2023/03/18 03:24:26;;;;;;;;;10.50;8.50;;;;;-147.17;100.00;-15917.19;4991712;28;52645;-50
2023/03/18 03:26:52;;;;;;;;;8.50;7.75;;;;;-147.17;100.00;-15917.19;5012125;28;51875;-51
2023/03/18 03:29:17;;;;;;;;;8.25;6.75;;;;;-147.17;100.00;-15917.19;5012873;28;52870;-48
2023/03/18 03:31:43;;;;;;;;;9.00;7.75;;;;;-147.17;100.00;-15917.19;5010287;28;51390;-48
2023/03/18 03:34:08;;;;;;;;;9.25;7.50;;;;;-147.17;100.00;-15917.19;5010111;28;51274;-51
2023/03/18 03:36:35;;;;;;;;;7.00;6.75;;;;;-147.17;100.00;-15917.19;5012115;28;51481;-49
2023/03/18 03:39:01;;;;;;;;;8.50;8.25;;;;;-147.17;100.00;-15917.19;5015002;28;51298;-50
2023/03/18 03:41:26;;;;;;;;;8.25;8.25;;;;;-147.17;100.00;-15917.19;5010896;28;51616;-52
2023/03/18 03:43:51;;;;;;;;;6.75;6.00;;;;;-147.17;100.00;-15917.19;4994807;28;52396;-52
2023/03/18 03:46:17;;;;;;;;;9.25;7.75;;;;;-147.17;100.00;-15917.19;5012099;28;52825;-50
2023/03/18 03:48:43;;;;;;;;;6.00;6.00;;;;;-147.17;100.00;-15917.19;5010523;28;52558;-49
2023/03/18 03:51:08;;;;;;;;;9.75;8.25;;;;;-147.17;100.00;-15917.19;4997210;28;51462;-52
2023/03/18 03:53:34;;;;;;;;;11.00;8.00;;;;;-147.17;100.00;-15917.19;5012608;28;52383;-50
2023/03/18 03:56:00;;;;;;;;;8.25;8.25;;;;;-147.17;100.00;-15917.19;5009546;28;51819;-49
2023/03/18 03:58:26;;;;;;;;;10.25;10.00;;;;;-147.17;100.00;-15917.19;5009891;28;52756;-50
2023/03/18 04:00:51;;;;;;;;;7.75;7.75;;;;;-147.17;100.00;-15917.19;5012565;28;51384;-49
2023/03/18 04:03:17;;;;;;;;;7.00;7.00;;;;;-147.17;100.00;-15917.19;5011802;28;52510;-50
2023/03/18 04:05:42;;;;;;;;;10.25;8.50;;;;;-147.17;100.00;-15917.19;5008871;28;51631;-52
2023/03/18 04:08:08;;;;;;;;;9.75;9.75;;;;;-147.17;100.00;-15917.19;5008317;28;53562;-50
2023/03/18 04:10:35;;;;;;;;;8.50;8.50;;;;;-147.17;100.00;-15917.19;5009491;28;52075;-48
2023/03/18 04:13:02;;;;;;;;;11.25;9.50;;;;;-147.17;100.00;-15917.19;5014209;28;53177;-50
2023/03/18 04:15:27;;;;;;;;;6.50;6.50;;;;;-147.17;100.00;-15917.19;5009811;28;51102;-50
2023/03/18 04:17:53;;;;;;;;;7.00;7.00;;;;;-147.17;100.00;-15917.19;5010483;28;51322;-52
2023/03/18 04:20:19;;;;;;;;;7.00;6.00;;;;;-147.17;100.00;-15917.19;5009706;28;51223;-50
2023/03/18 04:22:45;;;;;;;;;7.00;6.00;;;;;-147.17;100.00;-15917.19;5012699;28;51791;-51
2023/03/18 04:25:11;;;;;;;;;8.25;8.25;;;;;-147.17;100.00;-15917.19;5006862;28;51310;-48
2023/03/18 04:27:37;;;;;;;;;10.00;8.25;;;;;-147.17;100.00;-15917.19;5012015;28;51368;-52
2023/03/18 04:30:09;;;;;;;;;8.25;8.00;;;;;-147.17;100.00;-15917.19;5009581;28;52778;-52
2023/03/18 04:32:34;;;;;;;;;7.50;7.50;;;;;-147.17;100.00;-15917.19;4992623;28;52655;-51
2023/03/18 04:35:00;;;;;;;;;6.75;6.00;;;;;-147.17;100.00;-15917.19;5012166;28;52715;-53
2023/03/18 04:37:25;;;;;;;;;9.00;9.00;;;;;-147.17;100.00;-15917.19;5009796;28;51300;-51
2023/03/18 04:39:51;;;;;;;;;6.25;6.25;;;;;-147.17;100.00;-15917.19;5009519;28;51142;-50
2023/03/18 04:42:16;;;;;;;;;7.00;6.50;;;;;-147.17;100.00;-15917.19;5013782;28;53551;-50
2023/03/18 04:44:42;;;;;;;;;6.50;6.50;;;;;-147.17;100.00;-15917.19;5010341;28;51904;-52
2023/03/18 04:47:08;;;;;;;;;7.00;6.00;;;;;-147.17;100.00;-15917.19;4992087;28;51757;-51
2023/03/18 04:49:33;;;;;;;;;8.00;8.00;;;;;-147.17;100.00;-15917.19;5010358;28;51252;-49
2023/03/18 04:51:59;;;;;;;;;7.75;7.00;;;;;-147.17;100.00;-15917.19;5014685;28;52693;-50
2023/03/18 04:54:25;;;;;;;;;11.00;10.00;;;;;-147.17;100.00;-15917.19;5009637;28;51306;-52
2023/03/18 04:56:50;;;;;;;;;11.75;10.50;;;;;-147.17;100.00;-15917.19;5009708;28;51316;-51
2023/03/18 04:59:17;;;;;;;;;8.25;8.25;;;;;-147.17;100.00;-15917.19;4975350;28;51645;-48
2023/03/18 05:01:42;;;;;;;;;10.25;10.25;;;;;-147.17;100.00;-15917.19;5014300;28;52238;-49
2023/03/18 05:04:09;;;;;;;;;13.50;12.00;;;;;-147.17;100.00;-15917.19;5010894;28;51170;-53
2023/03/18 05:06:34;;;;;;;;;11.00;10.75;;;;;-147.17;100.00;-15917.19;5010964;28;51261;-51
2023/03/18 05:09:00;;;;;;;;;12.00;11.00;;;;;-147.17;100.00;-15917.19;5007066;28;51490;-50
2023/03/18 05:11:27;;;;;;;;;11.75;11.50;;;;;-147.17;100.00;-15917.19;5011799;28;51853;-51
2023/03/18 05:13:52;;;;;;;;;14.50;12.75;;;;;-147.17;100.00;-15917.19;5013261;28;51470;-51
2023/03/18 05:16:18;;;;;;;;;8.50;8.25;;;;;-147.17;100.00;-15917.19;4991305;28;51325;-50
2023/03/18 05:18:43;;;;;;;;;10.75;10.00;;;;;-147.17;100.00;-15917.19;5011361;28;51458;-51
2023/03/18 05:21:09;;;;;;;;;10.25;9.75;;;;;-147.17;100.00;-15917.19;5011744;28;52273;-48
2023/03/18 05:23:35;;;;;;;;;7.00;7.00;;;;;-147.17;100.00;-15917.19;5010095;28;51293;-49
2023/03/18 05:26:01;;;;;;;;;9.50;8.25;;;;;-147.17;100.00;-15917.19;5011328;28;51189;-49
2023/03/18 05:28:27;;;;;;;;;7.00;7.00;;;;;-147.17;100.00;-15917.19;5011488;28;51778;-49
2023/03/18 05:30:52;;;;;;;;;8.00;8.00;;;;;-147.17;100.00;-15917.19;5010456;28;51888;-49
2023/03/18 05:33:18;;;;;;;;;8.00;8.00;;;;;-147.17;100.00;-15917.19;5010030;28;52626;-50
2023/03/18 05:35:44;;;;;;;;;8.00;8.00;;;;;-147.17;100.00;-15917.19;4993659;28;51364;-50
2023/03/18 05:38:09;;;;;;;;;9.75;7.00;;;;;-147.17;100.00;-15917.19;5011552;28;51437;-51
2023/03/18 05:40:35;;;;;;;;;9.00;9.00;;;;;-147.17;100.00;-15917.19;5009108;28;51203;-50
2023/03/18 05:43:01;;;;;;;;;7.50;7.50;;;;;-147.17;100.00;-15917.19;5015888;28;52664;-51
2023/03/18 05:45:26;;;;;;;;;10.75;9.75;;;;;-147.17;100.00;-15917.19;5012711;28;53451;-50
2023/03/18 05:47:52;;;;;;;;;10.25;10.00;;;;;-147.17;100.00;-15917.19;4995122;28;51231;-51
2023/03/18 05:50:28;;;;;;;;;13.00;12.00;;;;;-147.17;100.00;-15917.19;4982393;28;51474;-50
2023/03/18 05:52:54;;;;;;;;;15.50;15.50;;;;;-147.17;100.00;-15917.19;5012958;28;51820;-49
2023/03/18 05:55:20;;;;;;;;;15.25;13.75;;;;;-147.17;100.00;-15917.19;5011749;28;51881;-49
2023/03/18 05:57:47;;;;;;;;;19.50;17.50;;;;;-147.17;100.00;-15917.19;5015611;28;53217;-50
2023/03/18 06:00:14;;;;;;;;;15.75;15.75;;;;;-147.17;100.00;-15917.19;5015175;28;51734;-49
2023/03/18 06:02:40;;;;;;;;;14.50;14.50;;;;;-147.17;100.00;-15917.19;5012533;28;52987;-50
2023/03/18 06:05:05;;;;;;;;;13.75;13.50;;;;;-147.17;100.00;-15917.19;5012545;28;52859;-49
2023/03/18 06:07:31;;;;;;;;;11.50;10.50;;;;;-147.17;100.00;-15917.19;5014630;28;51247;-49
2023/03/18 06:09:56;;;;;;;;;10.25;10.00;;;;;-147.17;100.00;-15917.19;5012669;28;52674;-49
2023/03/18 06:12:26;;;;;;;;;10.00;8.00;;;;;-147.17;100.00;-15917.19;5011907;28;53327;-51
2023/03/18 06:14:51;;;;;;;;;12.00;11.00;;;;;-147.17;100.00;-15917.19;5010164;28;51777;-52
2023/03/18 06:17:17;;;;;;;;;10.00;9.25;;;;;-147.17;100.00;-15917.19;5013548;28;51302;-48
2023/03/18 06:19:43;;;;;;;;;7.75;7.50;;;;;-147.17;100.00;-15917.19;4994752;28;51632;-49
2023/03/18 06:22:09;;;;;;;;;9.00;8.50;;;;;-147.17;100.00;-15917.19;5012741;28;51082;-51
2023/03/18 06:24:34;;;;;;;;;8.25;8.25;;;;;-147.17;100.00;-15917.19;5010267;28;52237;-50
2023/03/18 06:27:00;;;;;;;;;9.25;6.75;;;;;-147.17;100.00;-15917.19;5014982;28;51843;-54
2023/03/18 06:29:25;;;;;;;;;5.00;5.00;;;;;-147.17;100.00;-15917.19;5010585;28;51328;-50
2023/03/18 06:31:51;;;;;;;;;7.25;7.25;;;;;-147.17;100.00;-15917.19;5010438;28;53702;-50
2023/03/18 06:34:16;;;;;;;;;4.00;3.00;;;;;-147.17;100.00;-15917.19;5012953;28;51425;-50
2023/03/18 06:36:42;;;;;;;;;6.50;5.75;;;;;-147.17;100.00;-15917.19;4996616;28;51253;-53
2023/03/18 06:39:07;;;;;;;;;7.25;6.50;;;;;-147.17;100.00;-15917.19;5013736;28;51797;-52
2023/03/18 06:41:32;;;;;;;;;5.00;5.00;;;;;-147.17;100.00;-15917.19;5010912;28;51352;-52
2023/03/18 06:43:58;;;;;;;;;4.33;4.33;;;;;-147.17;100.00;-15917.19;5010382;28;52701;-50
2023/03/18 06:46:24;;;;;;;;;5.00;5.00;;;;;-147.17;100.00;-15917.19;5015557;28;52685;-51
2023/03/18 06:48:49;;;;;;;;;4.50;4.00;;;;;-147.17;100.00;-15917.19;5009932;28;53083;-50
2023/03/18 06:51:14;;;;;;;;;5.00;5.00;;;;;-147.17;100.00;-15917.19;5012209;28;51203;-51
2023/03/18 06:53:40;;;;;;;;;4.75;4.75;;;;;-147.17;100.00;-15917.19;5010953;28;52845;-48
2023/03/18 06:56:06;;;;;;;;;4.00;3.33;;;;;-147.17;100.00;-15917.19;4997513;28;51410;-50
2023/03/18 06:58:32;;;;;;;;;4.00;4.00;;;;;-147.17;100.00;-15917.19;5011188;28;51317;-50
2023/03/18 07:00:58;;;;;;;;;3.00;3.00;;;;;-147.17;100.00;-15917.19;5007771;28;52094;-50
2023/03/18 07:03:24;;;;;;;;;5.00;4.00;;;;;-147.17;100.00;-15917.19;5012503;28;51318;-52
2023/03/18 07:05:50;;;;;;;;;2.00;2.00;;;;;-147.17;100.00;-15917.19;5014314;28;51482;-50
2023/03/18 07:08:16;;;;;;;;;4.00;3.00;;;;;-147.17;100.00;-15917.19;5000087;28;52635;-49
2023/03/18 07:10:41;;;;;;;;;3.00;3.00;;;;;-147.17;100.00;-15917.19;4994885;28;51638;-47
2023/03/18 07:13:09;;;;;;;;;4.00;4.00;;;;;-147.17;100.00;-15917.19;4977927;28;51361;-49
2023/03/18 07:15:37;;;;;;;;;4.33;3.33;;;;;-147.17;100.00;-15917.19;4997214;28;51879;-50
2023/03/18 07:18:03;;;;;;;;;4.00;3.75;;;;;-147.17;100.00;-15917.19;4994749;28;51914;-49
2023/03/18 07:20:29;;;;;;;;;3.00;3.00;;;;;-147.17;100.00;-15917.19;4977729;28;52893;-53
2023/03/18 07:22:54;;;;;;;;;3.25;3.25;;;;;-147.17;100.00;-15917.19;4999069;28;51402;-52
2023/03/18 07:25:20;;;;;;;;;4.00;4.00;;;;;-147.17;100.00;-15917.19;4977318;28;52724;-48
2023/03/18 07:27:46;;;;;;;;;3.00;3.00;;;;;-147.17;100.00;-15917.19;4977734;28;51995;-51
2023/03/18 07:30:12;;;;;;;;;6.75;6.00;;;;;-147.17;100.00;-15917.19;4994625;28;51583;-50
2023/03/18 07:32:38;;;;;;;;;5.33;5.00;;;;;-147.17;100.00;-15917.19;4980251;28;51575;-52
2023/03/18 07:35:04;;;;;;;;;3.67;3.67;;;;;-147.17;100.00;-15917.19;4996320;28;51984;-51
2023/03/18 07:37:30;;;;;;;;;4.00;4.00;;;;;-147.17;100.00;-15917.19;4995811;28;51901;-50
2023/03/18 07:39:55;;;;;;;;;4.33;4.33;;;;;-147.17;100.00;-15917.19;4994612;28;52953;-51
2023/03/18 07:42:21;;;;;;;;;6.00;5.00;;;;;-147.17;100.00;-15917.19;4997051;28;51263;-50
2023/03/18 07:44:47;;;;;;;;;3.33;3.00;;;;;-147.17;100.00;-15917.19;4978127;28;51539;-52
2023/03/18 07:47:13;;;;;;;;;5.00;3.67;;;;;-147.17;100.00;-15917.19;4995291;28;52605;-52
2023/03/18 07:49:40;;;;;;;;;3.00;3.00;;;;;-147.17;100.00;-15917.19;4996613;28;51264;-53
2023/03/18 07:52:07;;;;;;;;;5.67;5.67;;;;;-147.17;100.00;-15917.19;4992343;28;51772;-52
2023/03/18 07:54:33;;;;;;;;;4.00;4.00;;;;;-147.17;100.00;-15917.19;4995188;28;51364;-53
2023/03/18 07:56:58;;;;;;;;;4.67;4.67;;;;;-147.17;100.00;-15917.19;4995276;28;52665;-52
2023/03/18 07:59:24;;;;;;;;;6.00;3.67;;;;;-147.17;100.00;-15917.19;4997156;28;51932;-48
2023/03/18 08:01:49;;;;;;;;;4.00;4.00;;;;;-147.17;100.00;-15917.19;4991806;28;51428;-50
2023/03/18 08:04:15;;;;;;;;;5.67;5.67;;;;;-147.17;100.00;-15917.19;4997390;28;52618;-51
2023/03/18 08:06:41;;;;;;;;;4.00;4.00;;;;;-147.17;100.00;-15917.19;4996226;28;52218;-51
2023/03/18 08:09:07;;;;;;;;;4.33;3.67;;;;;-147.17;100.00;-15917.19;5013919;28;53657;-53
2023/03/18 08:11:33;;;;;;;;;31.50;25.75;;;;;-147.17;100.00;-15917.19;4994628;28;52899;-48
2023/03/18 08:13:59;;;;;;;;;4.00;4.00;;;;;-147.17;100.00;-15917.19;5014361;28;51239;-52
2023/03/18 08:16:25;;;;;;;;;3.00;3.00;;;;;-147.17;100.00;-15917.19;5013358;28;52660;-52
2023/03/18 08:18:51;;;;;;;;;5.33;5.33;;;;;-147.17;100.00;-15917.19;4997471;28;51327;-53
2023/03/18 08:21:17;;;;;;;;;4.00;4.00;;;;;-147.17;100.00;-15917.19;4996005;28;51846;-49
2023/03/18 08:23:43;;;;;;;;;5.00;5.00;;;;;-147.17;100.00;-15917.19;5015272;28;51415;-49
2023/03/18 08:26:09;;;;;;;;;4.00;4.00;;;;;-147.17;100.00;-15917.19;5012112;28;53631;-52
2023/03/18 08:28:35;;;;;;;;;3.33;3.33;;;;;-147.17;100.00;-15917.19;5014762;28;51209;-51
2023/03/18 08:31:00;;;;;;;;;3.00;3.00;;;;;-147.17;100.00;-15917.19;5013192;28;51268;-49
2023/03/18 08:33:26;;;;;;;;;5.00;4.00;;;;;-147.17;100.00;-15917.19;5012638;28;51145;-49
2023/03/18 08:35:54;;;;;;;;;4.00;4.00;;;;;-147.17;100.00;-15917.19;5012555;28;52393;-51
2023/03/18 08:38:20;;;;;;;;;4.00;4.00;;;;;-147.17;100.00;-15917.19;5014643;28;52420;-48
2023/03/18 08:40:47;;;;;;;;;3.00;3.00;;;;;-147.17;100.00;-15917.19;5013980;28;51859;-50
2023/03/18 08:43:13;;;;;;;;;6.00;5.33;;;;;-147.17;100.00;-15917.19;5011079;28;51222;-47
2023/03/18 08:45:38;;;;;;;;;5.00;4.33;;;;;-147.17;100.00;-15917.19;5012258;28;52776;-46
2023/03/18 08:48:04;;;;;;;;;5.00;4.00;;;;;-147.17;100.00;-15917.19;5014943;28;52961;-49
2023/03/18 08:50:30;;;;;;;;;7.00;6.67;;;;;-147.17;100.00;-15917.19;5012539;28;51245;-50
2023/03/18 08:52:57;;;;;;;;;4.33;4.33;;;;;-147.17;100.00;-15917.19;5012992;28;51318;-52
2023/03/18 08:55:31;;;;;;;;;6.00;5.67;;;;;-147.17;100.00;-15917.19;5011237;28;51951;-52
2023/03/18 08:57:57;;;;;;;;;5.67;5.33;;;;;-147.17;100.00;-15917.19;5013643;28;51176;-49
2023/03/18 09:00:24;;;;;;;;;5.00;5.00;;;;;-147.17;100.00;-15917.19;5013229;28;52756;-51
2023/03/18 09:02:50;;;;;;;;;5.00;4.00;;;;;-147.17;100.00;-15917.19;5014275;28;51411;-50
2023/03/18 09:05:16;;;;;;;;;5.00;5.00;;;;;-147.17;100.00;-15917.19;5011798;28;51918;-49
2023/03/18 09:07:42;;;;;;;;;6.00;5.67;;;;;-147.17;100.00;-15917.19;4991262;28;51406;-52
2023/03/18 09:10:08;;;;;;;;;6.33;5.67;;;;;-147.17;100.00;-15917.19;4995123;28;51938;-52
2023/03/18 09:12:34;;;;;;;;;6.33;6.33;;;;;-147.17;100.00;-15917.19;5031928;28;51442;-50
2023/03/18 09:15:00;;;;;;;;;8.33;8.00;;;;;-147.17;100.00;-15917.19;5009138;28;51984;-51
2023/03/18 09:17:26;;;;;;;;;6.33;6.33;;;;;-147.17;100.00;-15915.72;5013811;28;51422;-52
2023/03/18 09:19:51;;;;;;;;;7.00;6.33;;;;;-147.17;100.00;-15915.72;5006838;28;51370;-48
2023/03/18 09:22:17;;;;;;;;;6.00;5.00;;;;;-147.17;100.00;-15668.00;4994807;28;51549;-52
2023/03/18 09:24:42;;;;;;;;;8.00;6.33;;;;;-147.17;100.00;-14676.94;5014266;28;53427;-54
2023/03/18 09:27:07;;;;;;;;;5.67;5.67;;;;;-147.17;100.00;-14429.16;5014891;28;51139;-51
2023/03/18 09:29:33;;;;;;;;;5.33;5.00;;;;;-147.17;100.00;-13685.63;4974960;28;51497;-53
2023/03/18 09:31:59;;;;;;;;;5.00;5.00;;;;;-147.17;100.00;-13933.50;5011686;28;52568;-49
2023/03/18 09:34:26;;;;;;;;;5.33;5.33;;;;;-147.17;100.00;-11454.25;4997692;28;53324;-49
2023/03/18 09:36:51;;;;;;;;;4.00;4.00;;;;;-147.17;100.00;-11454.25;4994042;28;51512;-50
2023/03/18 09:39:20;;;;;;;;;6.67;5.00;;;;;-147.17;100.00;-10462.09;5011036;28;51334;-51
2023/03/18 09:41:54;;;;;;;;;5.33;5.00;;;;;-147.17;100.00;-10710.16;5011780;28;51427;-52
2023/03/18 09:44:23;;;;;;;;;5.00;5.00;;;;;-147.17;100.00;-9717.81;5012731;28;52384;-52
2023/03/18 09:47:21;;;;;;;;;4.00;4.00;;;;;-147.17;100.00;-6987.56;5011710;28;51254;-52
2023/03/18 09:49:56;;;;;;;;;3.67;3.67;;;;;-147.17;100.00;-6987.56;5028765;28;51250;-51
2023/03/18 09:52:30;;;;;;;;;3.00;3.00;;;;;-147.17;100.00;-6987.56;5031917;28;52239;-49
2023/03/18 09:55:01;;;;;;;;;4.00;4.00;;;;;-147.17;100.00;-6987.56;5028435;28;51147;-57
2023/03/18 09:57:32;;;;;;;;;5.33;5.33;;;;;-147.17;100.00;-7980.59;5032592;28;51273;-52
2023/03/18 10:00:07;;;;;;;;;8.67;8.67;;;;;-147.17;100.00;-6490.94;5026247;28;52646;-51
2023/03/18 10:02:41;;;;;;;;;5.00;5.00;;;;;-147.17;100.00;-3261.34;5012777;28;51059;-52
2023/03/18 10:05:47;;;;;;;;;5.00;4.33;;;;;-147.17;100.00;-2515.66;5028130;28;52211;-50
2023/03/18 10:08:17;;;;;;;;;6.67;6.33;;;;;-147.17;100.00;-1769.84;5003715;28;51094;-53
2023/03/18 10:10:45;;;;;;;;;5.00;4.33;;;;;-147.17;100.00;468.50;5033313;28;50901;-52
2023/03/18 10:13:22;;;;;;;;;3.67;3.00;;;;;-147.17;100.00;-775.19;5034257;28;51199;-54
2023/03/18 10:15:53;;;;;;;;;5.00;4.00;;;;;-147.17;100.00;1214.91;5033556;28;51144;-52
2023/03/18 10:18:30;;;;;;;;;4.00;3.67;;;;;-147.17;100.00;6443.75;5028408;28;51169;-54
2023/03/18 10:21:23;;;;;;;;;2.00;2.00;;;;;-147.17;100.00;11430.19;5031458;28;51118;-49
2023/03/18 10:24:13;;;;;;;;;5.33;4.00;;;;;-147.17;100.00;9933.56;5030084;28;51485;-53
2023/03/18 10:26:45;;;;;;;;;3.00;2.00;;;;;-147.17;100.00;9185.47;5033425;28;51085;-55
2023/03/18 10:29:32;;;;;;;;;3.00;3.00;;;;;-147.17;100.00;10681.81;5039018;28;50944;-50
2023/03/18 10:32:08;;;;;;;;;3.00;2.33;;;;;-147.17;100.00;14674.81;4995347;28;51091;-53
2023/03/18 10:35:04;;;;;;;;;3.00;3.00;;;;;-147.17;100.00;13925.81;5033279;28;50919;-53
2023/03/18 10:37:36;;;;;;;;;3.00;3.00;;;;;-147.17;100.00;14924.50;5013091;28;53200;-53
2023/03/18 10:40:09;;;;;;;;;3.00;3.00;;;;;-147.17;100.00;16672.84;5032921;28;51042;-53
2023/03/18 10:42:36;;;;;;;;;5.33;5.33;;;;;-147.17;100.00;14175.44;5033989;28;50936;-52
2023/03/18 10:45:16;;;;;;;;;1.00;1.00;;;;;-147.17;100.00;13925.81;5045062;28;51033;-53
2023/03/18 10:47:48;;;;;;;;;2.00;2.00;;;;;-147.17;100.00;16423.03;5014662;28;52384;-49
2023/03/18 10:50:28;;;;;;;;;2.33;2.00;;;;;-147.17;100.00;11180.69;5003058;28;51107;-49
2023/03/18 10:53:10;;;;;;;;;3.00;3.00;;;;;-147.17;100.00;7689.75;5015321;28;51079;-53
2023/03/18 10:56:03;;;;;;;;;2.00;2.00;;;;;-147.17;100.00;15923.47;5033654;28;51010;-52
2023/03/18 10:58:32;;;;;;;;;2.00;1.67;;;;;-147.17;100.00;12178.69;5003149;28;52042;-54
2023/03/18 11:00:57;;;;;;;;;2.33;2.33;;;;;-147.17;100.00;11679.66;5021280;28;51044;-51